Time;durP1;ratioP1;P1;durP2;ratioP2;P2;SDS_P1;SDS_P2;PMS_P1;PMS_P2;Temp;Humidity;BMP_temperature;BMP_pressure;BME280_temperature;BME280_humidity;BME280_pressure;Samples;Min_cycle;Max_cycle;Signal;HPM_P1;HPM_P2
2021/11/07 00:06:29;;;;;;;9.13;1.98;;;;;;;;;;5139687;27;20354;-76
2021/11/07 00:09:09;;;;;;;11.38;2.05;;;;;;;;;;5121121;27;20015;-79
2021/11/07 00:11:37;;;;;;;7.70;1.67;;;;;;;;;;5139928;27;20039;-79
2021/11/07 00:14:05;;;;;;;7.22;1.80;;;;;;;;;;5139913;27;20110;-80
2021/11/07 00:16:34;;;;;;;7.60;2.00;;;;;;;;;;5140376;27;20023;-80
2021/11/07 00:19:08;;;;;;;12.07;2.00;;;;;;;;;;5140412;27;20557;-80
2021/11/07 00:21:45;;;;;;;9.60;2.28;;;;;;;;;;5140120;27;20026;-78
2021/11/07 00:24:28;;;;;;;14.35;2.40;;;;;;;;;;5140766;27;20049;-78
2021/11/07 00:27:18;;;;;;;9.13;1.88;;;;;;;;;;5139892;27;20011;-80
2021/11/07 00:37:57;;;;;;;10.05;2.42;;;;;;;;;;5138995;27;20037;-77
2021/11/07 00:45:31;;;;;;;12.27;2.77;;;;;;;;;;5140953;27;20106;-78
2021/11/07 00:48:22;;;;;;;9.80;2.33;;;;;;;;;;5121486;27;20473;-77
2021/11/07 01:01:31;;;;;;;10.48;3.10;;;;;;;;;;5117918;27;20099;-81
2021/11/07 01:04:00;;;;;;;8.80;2.70;;;;;;;;;;5140772;27;20027;-80
2021/11/07 01:06:26;;;;;;;10.70;2.72;;;;;;;;;;5139321;27;20026;-81
2021/11/07 01:08:52;;;;;;;10.55;3.17;;;;;;;;;;5140263;27;20057;-80
2021/11/07 01:11:18;;;;;;;9.52;2.83;;;;;;;;;;5138859;27;20514;-74
2021/11/07 01:13:45;;;;;;;10.60;2.50;;;;;;;;;;5138840;27;20075;-78
2021/11/07 01:16:11;;;;;;;9.88;3.20;;;;;;;;;;5139169;27;20067;-78
2021/11/07 01:18:38;;;;;;;9.25;2.67;;;;;;;;;;5120367;27;20051;-75
2021/11/07 01:21:04;;;;;;;8.65;2.90;;;;;;;;;;5138808;27;20482;-80
2021/11/07 01:23:38;;;;;;;9.07;2.88;;;;;;;;;;5139829;27;20027;-82
2021/11/07 01:26:52;;;;;;;10.10;3.08;;;;;;;;;;5121560;27;20073;-82
2021/11/07 01:28:55;;;;;;;8.18;2.83;;;;;;;;;;5131594;27;20023;-81
2021/11/07 01:31:21;;;;;;;12.05;3.40;;;;;;;;;;5139637;27;20020;-81
2021/11/07 01:33:48;;;;;;;9.98;3.03;;;;;;;;;;5120998;27;20034;-81
2021/11/07 01:36:28;;;;;;;7.10;3.15;;;;;;;;;;5120969;27;20397;-80
2021/11/07 01:44:14;;;;;;;8.38;2.97;;;;;;;;;;5138932;27;20038;-80
2021/11/07 01:46:47;;;;;;;7.35;3.03;;;;;;;;;;5118982;27;20083;-78
2021/11/07 01:49:17;;;;;;;11.23;2.97;;;;;;;;;;5136265;27;20057;-75
2021/11/07 01:51:49;;;;;;;7.32;3.28;;;;;;;;;;5136050;27;20035;-76
2021/11/07 01:56:44;;;;;;;7.93;2.92;;;;;;;;;;5137502;27;20027;-77
2021/11/07 01:59:10;;;;;;;8.90;3.25;;;;;;;;;;5138875;27;20072;-80
2021/11/07 02:01:36;;;;;;;13.25;3.72;;;;;;;;;;5138906;27;20041;-77
2021/11/07 02:04:03;;;;;;;9.40;3.30;;;;;;;;;;5139866;27;20043;-79
2021/11/07 02:06:29;;;;;;;10.30;3.20;;;;;;;;;;5140309;27;20027;-82
2021/11/07 02:08:55;;;;;;;12.55;3.80;;;;;;;;;;5140683;27;20011;-75
2021/11/07 02:11:21;;;;;;;10.45;3.50;;;;;;;;;;5139824;27;20023;-78
2021/11/07 02:13:49;;;;;;;9.90;3.30;;;;;;;;;;5139750;27;20031;-79
2021/11/07 02:16:15;;;;;;;7.45;3.50;;;;;;;;;;5139361;27;20047;-78
2021/11/07 02:18:42;;;;;;;10.73;3.97;;;;;;;;;;5139061;27;20047;-74
2021/11/07 02:21:08;;;;;;;8.23;2.67;;;;;;;;;;5138811;27;20023;-79
2021/11/07 02:23:35;;;;;;;12.82;3.30;;;;;;;;;;5139679;27;20023;-78
2021/11/07 02:26:04;;;;;;;11.38;3.38;;;;;;;;;;5139348;27;20027;-79
2021/11/07 02:28:42;;;;;;;10.95;3.88;;;;;;;;;;5120594;27;20023;-77
2021/11/07 02:31:09;;;;;;;10.80;3.38;;;;;;;;;;5138974;27;20023;-78
2021/11/07 02:33:36;;;;;;;15.35;3.58;;;;;;;;;;5138900;27;20106;-79
2021/11/07 02:36:09;;;;;;;7.70;2.97;;;;;;;;;;5139145;27;20031;-79
2021/11/07 02:38:36;;;;;;;8.13;3.45;;;;;;;;;;5140110;27;20106;-78
2021/11/07 02:41:03;;;;;;;15.18;3.05;;;;;;;;;;5121407;27;20024;-82
2021/11/07 02:43:29;;;;;;;12.02;3.65;;;;;;;;;;5138492;27;20027;-79
2021/11/07 02:45:55;;;;;;;10.52;3.10;;;;;;;;;;5138537;27;20030;-77
2021/11/07 02:48:21;;;;;;;8.73;3.25;;;;;;;;;;5120135;27;20023;-82
2021/11/07 02:50:47;;;;;;;7.63;3.25;;;;;;;;;;5139480;27;20167;-82
2021/11/07 02:53:13;;;;;;;11.48;3.28;;;;;;;;;;5139629;27;20038;-83
2021/11/07 02:55:39;;;;;;;9.88;3.25;;;;;;;;;;5139788;27;20023;-81
2021/11/07 02:58:05;;;;;;;9.30;2.90;;;;;;;;;;5140032;28;20054;-79
2021/11/07 03:00:32;;;;;;;6.72;2.97;;;;;;;;;;5139428;28;20042;-78
2021/11/07 03:02:58;;;;;;;6.85;2.90;;;;;;;;;;5120724;28;20030;-80
2021/11/07 03:05:28;;;;;;;8.80;2.80;;;;;;;;;;5140225;28;20030;-79
2021/11/07 03:07:54;;;;;;;7.47;2.58;;;;;;;;;;5140524;28;20030;-79
2021/11/07 03:10:21;;;;;;;9.70;2.90;;;;;;;;;;5139661;28;20024;-79
2021/11/07 03:13:01;;;;;;;8.93;3.00;;;;;;;;;;5120741;28;20023;-80
2021/11/07 03:15:27;;;;;;;9.13;2.53;;;;;;;;;;5139021;28;20083;-78
2021/11/07 03:17:53;;;;;;;8.05;2.38;;;;;;;;;;5121214;28;20050;-84
2021/11/07 03:20:20;;;;;;;9.10;3.15;;;;;;;;;;5139089;28;20097;-83
2021/11/07 03:22:46;;;;;;;6.70;2.88;;;;;;;;;;5139183;28;20099;-83
2021/11/07 03:25:12;;;;;;;7.25;2.35;;;;;;;;;;5121446;28;20056;-83
2021/11/07 03:27:41;;;;;;;11.45;3.17;;;;;;;;;;5121264;28;20030;-83
2021/11/07 03:30:14;;;;;;;7.88;2.67;;;;;;;;;;5139401;28;20015;-83
2021/11/07 03:32:42;;;;;;;8.73;3.10;;;;;;;;;;5139035;28;20038;-83
2021/11/07 03:35:16;;;;;;;5.88;2.60;;;;;;;;;;5121687;28;20379;-83
2021/11/07 03:37:46;;;;;;;8.95;2.70;;;;;;;;;;5120816;28;20015;-81
2021/11/07 03:40:12;;;;;;;6.40;2.40;;;;;;;;;;5120767;28;20027;-78
2021/11/07 03:42:39;;;;;;;6.63;2.83;;;;;;;;;;5120374;28;20081;-82
2021/11/07 03:45:05;;;;;;;6.18;2.45;;;;;;;;;;5119735;28;20030;-79
2021/11/07 03:47:31;;;;;;;4.80;2.50;;;;;;;;;;5120642;27;20053;-80
2021/11/07 03:49:58;;;;;;;7.53;2.20;;;;;;;;;;5123530;27;20019;-78
2021/11/07 03:52:25;;;;;;;7.22;2.55;;;;;;;;;;5142291;27;20023;-82
2021/11/07 03:54:51;;;;;;;10.38;2.78;;;;;;;;;;5124601;27;20031;-82
2021/11/07 03:57:17;;;;;;;6.65;2.70;;;;;;;;;;5142869;27;20074;-81
2021/11/07 03:59:45;;;;;;;8.13;2.33;;;;;;;;;;5142575;27;20026;-81
2021/11/07 04:02:11;;;;;;;4.80;2.25;;;;;;;;;;5142836;27;20026;-83
2021/11/07 04:04:39;;;;;;;6.70;2.03;;;;;;;;;;5123788;27;20045;-84
2021/11/07 04:07:05;;;;;;;6.40;2.15;;;;;;;;;;5142630;27;20011;-81
2021/11/07 04:09:31;;;;;;;8.70;2.10;;;;;;;;;;5123273;27;20420;-78
2021/11/07 04:11:58;;;;;;;7.00;2.20;;;;;;;;;;5141237;27;20056;-78
2021/11/07 04:14:24;;;;;;;6.38;2.03;;;;;;;;;;5139791;27;20050;-76
2021/11/07 04:16:50;;;;;;;8.95;2.30;;;;;;;;;;5139078;27;20030;-76
2021/11/07 04:19:16;;;;;;;7.47;2.40;;;;;;;;;;5138882;27;20090;-77
2021/11/07 04:21:47;;;;;;;5.75;2.25;;;;;;;;;;5139272;27;20022;-75
2021/11/07 04:24:13;;;;;;;12.57;2.08;;;;;;;;;;5139672;27;20076;-78
2021/11/07 04:26:39;;;;;;;7.18;2.47;;;;;;;;;;5139335;27;20027;-77
2021/11/07 04:29:05;;;;;;;9.07;2.80;;;;;;;;;;5139556;27;20442;-78
2021/11/07 04:31:31;;;;;;;7.75;2.60;;;;;;;;;;5139550;27;20027;-80
2021/11/07 04:33:57;;;;;;;8.65;2.35;;;;;;;;;;5141639;27;20462;-78
2021/11/07 04:36:32;;;;;;;9.10;2.33;;;;;;;;;;5122885;27;20031;-81
2021/11/07 04:38:58;;;;;;;17.90;2.40;;;;;;;;;;5139716;27;20027;-77
2021/11/07 04:41:24;;;;;;;14.88;2.53;;;;;;;;;;5120105;27;20115;-77
2021/11/07 04:43:50;;;;;;;8.15;1.88;;;;;;;;;;5119505;27;20481;-76
2021/11/07 04:46:19;;;;;;;6.45;2.20;;;;;;;;;;5138032;27;20023;-77
2021/11/07 04:48:46;;;;;;;6.50;1.92;;;;;;;;;;5138962;27;20052;-77
2021/11/07 04:51:12;;;;;;;10.10;2.30;;;;;;;;;;5140503;27;20019;-80
2021/11/07 04:53:38;;;;;;;7.32;1.98;;;;;;;;;;5138402;27;20038;-77
2021/11/07 04:56:04;;;;;;;9.57;2.00;;;;;;;;;;5121481;27;20019;-82
2021/11/07 04:58:30;;;;;;;9.07;2.40;;;;;;;;;;5121228;27;20031;-81
2021/11/07 05:00:56;;;;;;;11.65;2.10;;;;;;;;;;5139013;27;20489;-79
2021/11/07 05:03:22;;;;;;;18.45;2.10;;;;;;;;;;5138872;27;20031;-79
2021/11/07 05:05:48;;;;;;;19.02;2.45;;;;;;;;;;5121257;27;20422;-83
2021/11/07 05:08:14;;;;;;;10.98;2.60;;;;;;;;;;5139779;27;20023;-81
2021/11/07 05:10:40;;;;;;;19.45;2.75;;;;;;;;;;5138870;27;20022;-82
2021/11/07 05:13:08;;;;;;;8.75;2.50;;;;;;;;;;5121252;27;20104;-82
2021/11/07 05:15:34;;;;;;;15.93;2.55;;;;;;;;;;5120617;27;20476;-82
2021/11/07 05:18:01;;;;;;;15.43;2.10;;;;;;;;;;5137117;27;20405;-77
2021/11/07 05:20:27;;;;;;;16.02;2.58;;;;;;;;;;5118179;27;20117;-82
2021/11/07 05:22:53;;;;;;;18.83;2.53;;;;;;;;;;5137889;27;20495;-78
2021/11/07 05:25:19;;;;;;;14.40;2.70;;;;;;;;;;5138213;27;20027;-78
2021/11/07 05:27:45;;;;;;;22.17;2.78;;;;;;;;;;5119655;27;20023;-78
2021/11/07 05:30:12;;;;;;;12.63;2.20;;;;;;;;;;5136294;27;20612;-74
2021/11/07 05:32:39;;;;;;;18.88;3.05;;;;;;;;;;5137296;27;20035;-78
2021/11/07 05:35:05;;;;;;;18.88;2.20;;;;;;;;;;5119760;27;20023;-79
2021/11/07 05:37:31;;;;;;;9.48;2.10;;;;;;;;;;5138190;27;20023;-78
2021/11/07 05:39:57;;;;;;;10.65;2.17;;;;;;;;;;5119073;27;20031;-78
2021/11/07 05:42:23;;;;;;;9.93;2.17;;;;;;;;;;5119598;27;20015;-75
2021/11/07 05:44:49;;;;;;;9.57;2.42;;;;;;;;;;5136635;27;20027;-74
2021/11/07 05:47:15;;;;;;;11.18;2.30;;;;;;;;;;5138155;27;20370;-81
2021/11/07 05:49:41;;;;;;;18.70;3.17;;;;;;;;;;5121582;27;20023;-84
2021/11/07 05:52:07;;;;;;;8.90;2.38;;;;;;;;;;5139462;27;20039;-81
2021/11/07 05:54:33;;;;;;;14.75;2.35;;;;;;;;;;5139063;27;20360;-79
2021/11/07 05:57:01;;;;;;;11.77;2.40;;;;;;;;;;5139143;27;20079;-81
2021/11/07 05:59:29;;;;;;;18.48;2.55;;;;;;;;;;5138073;27;20031;-75
2021/11/07 06:01:55;;;;;;;12.90;2.22;;;;;;;;;;5135495;27;20023;-75
2021/11/07 06:04:21;;;;;;;12.02;2.72;;;;;;;;;;5135879;27;20034;-80
2021/11/07 06:06:47;;;;;;;9.27;2.10;;;;;;;;;;5137063;27;20019;-77
2021/11/07 06:09:13;;;;;;;13.55;2.58;;;;;;;;;;5136718;27;20023;-78
2021/11/07 06:11:40;;;;;;;9.27;2.35;;;;;;;;;;5136528;27;20027;-77
2021/11/07 06:14:06;;;;;;;12.85;2.88;;;;;;;;;;5136716;27;20466;-78
2021/11/07 06:16:32;;;;;;;19.20;2.58;;;;;;;;;;5136532;27;20030;-77
2021/11/07 06:18:58;;;;;;;8.82;2.33;;;;;;;;;;5117332;27;20050;-77
2021/11/07 06:21:24;;;;;;;10.57;2.47;;;;;;;;;;5117901;27;20108;-74
2021/11/07 06:23:55;;;;;;;8.57;2.08;;;;;;;;;;5135218;27;20092;-74
2021/11/07 06:26:21;;;;;;;22.48;3.00;;;;;;;;;;5135018;27;20065;-71
2021/11/07 06:28:47;;;;;;;36.28;3.28;;;;;;;;;;5134878;27;20416;-72
2021/11/07 06:31:13;;;;;;;19.85;2.60;;;;;;;;;;5116024;27;20106;-74
2021/11/07 06:33:40;;;;;;;27.92;2.25;;;;;;;;;;5134245;27;20031;-72
2021/11/07 06:36:06;;;;;;;9.57;2.33;;;;;;;;;;5134244;27;20019;-71
2021/11/07 06:38:32;;;;;;;7.70;1.70;;;;;;;;;;5134228;27;20075;-72
2021/11/07 06:40:58;;;;;;;23.35;3.08;;;;;;;;;;5134108;27;20026;-72
2021/11/07 06:43:24;;;;;;;12.82;2.15;;;;;;;;;;5134739;27;20031;-73
2021/11/07 06:45:50;;;;;;;8.15;1.92;;;;;;;;;;5134093;27;20047;-71
2021/11/07 06:48:16;;;;;;;10.15;2.28;;;;;;;;;;5133839;27;20452;-71
2021/11/07 06:50:43;;;;;;;8.05;1.80;;;;;;;;;;5133643;27;20019;-71
2021/11/07 06:53:09;;;;;;;13.73;2.47;;;;;;;;;;5115327;28;20088;-71
2021/11/07 06:55:35;;;;;;;8.02;2.08;;;;;;;;;;5134068;27;20574;-72
2021/11/07 06:58:01;;;;;;;10.82;2.40;;;;;;;;;;5134034;27;20027;-71
2021/11/07 07:00:28;;;;;;;12.30;2.13;;;;;;;;;;5133980;28;20011;-71
2021/11/07 07:02:54;;;;;;;16.77;1.85;;;;;;;;;;5133722;28;20034;-71
2021/11/07 07:05:20;;;;;;;23.55;2.42;;;;;;;;;;5115178;28;20482;-73
2021/11/07 07:07:51;;;;;;;21.42;2.75;;;;;;;;;;5133603;28;20039;-73
2021/11/07 07:10:30;;;;;;;14.80;2.50;;;;;;;;;;5133973;28;20027;-74
2021/11/07 07:13:08;;;;;;;16.17;2.30;;;;;;;;;;5133935;28;20122;-74
2021/11/07 07:15:45;;;;;;;14.80;2.40;;;;;;;;;;5133929;28;20443;-75
2021/11/07 07:18:28;;;;;;;17.52;2.35;;;;;;;;;;5133781;28;20019;-71
2021/11/07 07:28:40;;;;;;;23.85;2.85;;;;;;;;;;5146627;27;20064;-71
2021/11/07 07:34:12;;;;;;;15.63;2.83;;;;;;;;;;5102185;28;20498;-69
2021/11/07 07:36:38;;;;;;;18.42;2.88;;;;;;;;;;5074404;28;20077;-69
2021/11/07 07:39:05;;;;;;;21.17;2.50;;;;;;;;;;5094564;28;20035;-74
2021/11/07 07:41:31;;;;;;;15.35;2.72;;;;;;;;;;5117414;28;20024;-74
2021/11/07 07:44:03;;;;;;;13.73;2.50;;;;;;;;;;5115762;28;20029;-74
2021/11/07 07:46:30;;;;;;;11.77;1.85;;;;;;;;;;5117019;28;20466;-74
2021/11/07 07:48:57;;;;;;;12.40;2.53;;;;;;;;;;5116789;28;20400;-75
2021/11/07 07:51:25;;;;;;;12.38;2.47;;;;;;;;;;5117028;28;20066;-74
2021/11/07 07:53:51;;;;;;;17.80;3.08;;;;;;;;;;5116797;28;20059;-74
2021/11/07 07:56:17;;;;;;;22.15;2.83;;;;;;;;;;5116749;28;20055;-74
2021/11/07 07:58:43;;;;;;;16.17;2.30;;;;;;;;;;5135045;27;20025;-75
2021/11/07 08:01:10;;;;;;;14.05;2.33;;;;;;;;;;5118889;27;20030;-74
2021/11/07 08:03:37;;;;;;;22.38;2.65;;;;;;;;;;5133686;27;20422;-74
2021/11/07 08:06:03;;;;;;;12.48;2.38;;;;;;;;;;5118426;27;20033;-74
2021/11/07 08:08:29;;;;;;;14.13;2.05;;;;;;;;;;5137061;27;20418;-75
2021/11/07 08:10:55;;;;;;;8.13;1.85;;;;;;;;;;5137020;27;20316;-74
2021/11/07 08:13:21;;;;;;;9.05;2.33;;;;;;;;;;5118655;27;20062;-75
2021/11/07 08:15:47;;;;;;;44.60;2.83;;;;;;;;;;5136960;27;20378;-72
2021/11/07 08:18:13;;;;;;;37.45;3.45;;;;;;;;;;5137132;27;20019;-73
2021/11/07 08:20:43;;;;;;;61.03;2.92;;;;;;;;;;5137165;27;20050;-73
2021/11/07 08:23:09;;;;;;;19.73;2.85;;;;;;;;;;5118031;27;20022;-73
2021/11/07 08:25:35;;;;;;;25.42;2.95;;;;;;;;;;5118533;27;20027;-73
2021/11/07 08:28:03;;;;;;;32.97;2.92;;;;;;;;;;5118266;27;20126;-73
2021/11/07 08:30:30;;;;;;;26.33;2.92;;;;;;;;;;5136557;27;20041;-73
2021/11/07 08:32:57;;;;;;;31.63;2.83;;;;;;;;;;5136791;27;20045;-73
2021/11/07 08:35:23;;;;;;;23.10;3.33;;;;;;;;;;5135172;27;20023;-73
2021/11/07 08:40:22;;;;;;;22.38;3.25;;;;;;;;;;5136546;27;20114;-73
2021/11/07 08:42:53;;;;;;;23.10;2.65;;;;;;;;;;5118162;27;20034;-73
2021/11/07 09:09:25;;;;;;;14.77;2.55;;;;;;;;;;5115703;28;20485;-73
2021/11/07 09:11:53;;;;;;;16.40;2.95;;;;;;;;;;5115395;28;20062;-73
2021/11/07 09:14:21;;;;;;;17.25;2.92;;;;;;;;;;5115390;28;20115;-73
2021/11/07 09:16:48;;;;;;;15.57;2.88;;;;;;;;;;5115343;28;20073;-77
2021/11/07 09:19:19;;;;;;;13.45;2.47;;;;;;;;;;5115581;28;20048;-73
2021/11/07 09:21:48;;;;;;;11.52;2.58;;;;;;;;;;5097565;28;20038;-74
2021/11/07 09:24:25;;;;;;;15.75;2.80;;;;;;;;;;5096961;28;20027;-74
2021/11/07 09:26:52;;;;;;;18.20;3.08;;;;;;;;;;5115032;28;20039;-75
2021/11/07 09:29:33;;;;;;;17.98;3.55;;;;;;;;;;5115272;28;20077;-74
2021/11/07 09:32:26;;;;;;;13.52;2.80;;;;;;;;;;5096762;28;20089;-75
2021/11/07 09:35:09;;;;;;;15.60;3.03;;;;;;;;;;5114910;28;20020;-75
2021/11/07 09:40:09;;;;;;;17.58;2.75;;;;;;;;;;5115085;28;20034;-75
2021/11/07 09:45:17;;;;;;;12.45;3.08;;;;;;;;;;5114521;28;20036;-75
2021/11/07 09:47:49;;;;;;;25.80;3.05;;;;;;;;;;5114668;28;20847;-73
2021/11/07 09:50:15;;;;;;;13.48;2.55;;;;;;;;;;5096296;28;20024;-74
2021/11/07 09:52:47;;;;;;;10.32;2.45;;;;;;;;;;5114552;28;20034;-74
2021/11/07 09:55:14;;;;;;;15.55;3.00;;;;;;;;;;5096183;28;20023;-75
2021/11/07 09:57:41;;;;;;;16.25;2.83;;;;;;;;;;5114352;28;20500;-75
2021/11/07 10:00:10;;;;;;;16.08;2.72;;;;;;;;;;5096061;28;20043;-74
2021/11/07 10:02:36;;;;;;;11.45;2.53;;;;;;;;;;5114275;28;20106;-74
2021/11/07 10:05:03;;;;;;;14.85;2.88;;;;;;;;;;5114124;28;20054;-74
2021/11/07 10:07:33;;;;;;;18.35;2.88;;;;;;;;;;5096049;28;20020;-74
2021/11/07 10:10:02;;;;;;;16.05;2.75;;;;;;;;;;5096014;28;20032;-74
2021/11/07 10:12:39;;;;;;;11.80;2.28;;;;;;;;;;5114148;28;20118;-74
2021/11/07 10:15:09;;;;;;;13.30;2.40;;;;;;;;;;5113955;28;20019;-74
2021/11/07 10:17:42;;;;;;;15.65;3.03;;;;;;;;;;5095787;28;20064;-75
2021/11/07 10:20:22;;;;;;;12.82;2.60;;;;;;;;;;5113885;28;20055;-77
2021/11/07 10:22:54;;;;;;;13.65;2.58;;;;;;;;;;5116911;27;20521;-71
2021/11/07 10:25:25;;;;;;;16.20;3.13;;;;;;;;;;5112713;28;20081;-72
2021/11/07 10:27:54;;;;;;;18.17;3.15;;;;;;;;;;5095745;28;20046;-71
2021/11/07 10:30:24;;;;;;;10.80;2.47;;;;;;;;;;5113796;28;20084;-73
2021/11/07 10:32:59;;;;;;;12.70;2.58;;;;;;;;;;5113624;28;20085;-73
2021/11/07 10:38:13;;;;;;;12.65;2.75;;;;;;;;;;5114241;28;20118;-73
2021/11/07 10:40:57;;;;;;;16.73;2.80;;;;;;;;;;5116128;28;20030;-76
2021/11/07 10:46:16;;;;;;;17.65;2.53;;;;;;;;;;5114930;28;20110;-71
2021/11/07 10:52:05;;;;;;;20.10;3.40;;;;;;;;;;5114710;28;20095;-76
2021/11/07 10:54:27;;;;;;;20.83;3.35;;;;;;;;;;5114896;28;20131;-77
2021/11/07 10:57:14;;;;;;;17.05;3.13;;;;;;;;;;5095610;28;20080;-75
2021/11/07 10:59:40;;;;;;;19.40;2.92;;;;;;;;;;5114806;28;20131;-76
2021/11/07 11:02:25;;;;;;;27.15;3.80;;;;;;;;;;5097568;28;20043;-72
2021/11/07 11:05:01;;;;;;;25.83;3.92;;;;;;;;;;5118185;28;20042;-74
2021/11/07 11:07:27;;;;;;;25.23;4.05;;;;;;;;;;5097640;28;20027;-73
2021/11/07 11:10:37;;;;;;;22.25;4.05;;;;;;;;;;5117164;28;20035;-74
2021/11/07 11:13:11;;;;;;;31.45;3.45;;;;;;;;;;5033557;28;20083;-74
2021/11/07 11:15:46;;;;;;;23.63;3.90;;;;;;;;;;5089489;28;20028;-74
2021/11/07 11:21:44;;;;;;;20.55;3.28;;;;;;;;;;5115073;28;20050;-75
2021/11/07 11:24:14;;;;;;;18.88;3.42;;;;;;;;;;5112527;28;20034;-74
2021/11/07 11:26:49;;;;;;;24.63;4.68;;;;;;;;;;5095980;28;20034;-75
2021/11/07 11:34:14;;;;;;;26.73;3.75;;;;;;;;;;5114353;28;20061;-74
2021/11/07 11:36:52;;;;;;;26.75;4.05;;;;;;;;;;5113901;28;20051;-72
2021/11/07 11:39:23;;;;;;;17.85;3.90;;;;;;;;;;5096743;28;20023;-71
2021/11/07 11:42:14;;;;;;;16.13;3.72;;;;;;;;;;5114901;28;20015;-72
2021/11/07 11:44:41;;;;;;;25.00;4.85;;;;;;;;;;5098252;27;20027;-72
2021/11/07 11:47:40;;;;;;;30.08;4.00;;;;;;;;;;5117315;28;20462;-72
2021/11/07 11:52:51;;;;;;;33.67;4.18;;;;;;;;;;5134565;28;20475;-71
2021/11/07 12:01:38;;;;;;;20.63;3.33;;;;;;;;;;5134148;28;20027;-72
2021/11/07 12:04:05;;;;;;;19.63;3.58;;;;;;;;;;5124336;28;20121;-70
2021/11/07 12:06:31;;;;;;;16.67;3.38;;;;;;;;;;5133732;28;20027;-71
2021/11/07 12:12:15;;;;;;;19.25;3.30;;;;;;;;;;5134004;27;20609;-70
2021/11/07 12:15:00;;;;;;;20.33;3.40;;;;;;;;;;5137705;27;20035;-72
2021/11/07 12:17:31;;;;;;;20.15;3.35;;;;;;;;;;5137720;27;20496;-71
2021/11/07 12:19:57;;;;;;;19.25;3.55;;;;;;;;;;5137442;27;20043;-71
2021/11/07 12:22:24;;;;;;;14.95;3.40;;;;;;;;;;5137613;27;20019;-71
2021/11/07 12:24:51;;;;;;;16.00;3.38;;;;;;;;;;5119790;27;20111;-70
2021/11/07 12:27:30;;;;;;;13.85;2.97;;;;;;;;;;5140651;27;20035;-71
2021/11/07 12:29:57;;;;;;;14.73;2.65;;;;;;;;;;5137336;27;20015;-71
2021/11/07 12:32:25;;;;;;;13.65;3.15;;;;;;;;;;5136601;27;20134;-72
2021/11/07 12:35:02;;;;;;;17.15;3.40;;;;;;;;;;5119162;27;20034;-71
2021/11/07 12:40:39;;;;;;;14.90;3.33;;;;;;;;;;5094080;28;20119;-71
2021/11/07 12:43:06;;;;;;;17.70;3.05;;;;;;;;;;5093988;28;20052;-70
2021/11/07 12:45:42;;;;;;;21.02;3.20;;;;;;;;;;5097216;27;20027;-69
2021/11/07 12:48:10;;;;;;;17.90;3.22;;;;;;;;;;5118348;27;20019;-71
2021/11/07 12:50:50;;;;;;;11.45;2.58;;;;;;;;;;5118448;27;20039;-73
2021/11/07 12:53:16;;;;;;;17.20;3.47;;;;;;;;;;5137342;27;20074;-72
2021/11/07 12:55:42;;;;;;;23.98;3.78;;;;;;;;;;5118606;27;20019;-73
2021/11/07 12:58:08;;;;;;;16.02;3.47;;;;;;;;;;5136576;27;20109;-73
2021/11/07 13:00:34;;;;;;;14.65;3.22;;;;;;;;;;5138499;27;20474;-73
2021/11/07 13:03:11;;;;;;;15.88;3.55;;;;;;;;;;5132181;27;20027;-73
2021/11/07 13:05:39;;;;;;;18.60;3.47;;;;;;;;;;5136436;27;20020;-75
2021/11/07 13:08:12;;;;;;;42.38;3.67;;;;;;;;;;5136661;27;20016;-73
2021/11/07 13:10:56;;;;;;;47.45;3.92;;;;;;;;;;5137029;27;20081;-72
2021/11/07 13:34:32;;;;;;;35.55;4.32;;;;;;;;;;5136009;27;20486;-69
2021/11/07 13:37:02;;;;;;;59.10;4.72;;;;;;;;;;5117411;27;20106;-69
2021/11/07 13:39:30;;;;;;;34.88;4.43;;;;;;;;;;5135719;27;20023;-68
2021/11/07 13:41:59;;;;;;;49.00;4.65;;;;;;;;;;5135568;27;20026;-68
2021/11/07 13:44:28;;;;;;;31.48;4.40;;;;;;;;;;5135380;27;20023;-69
2021/11/07 13:47:01;;;;;;;28.80;3.65;;;;;;;;;;5134973;27;20495;-68
2021/11/07 13:49:28;;;;;;;27.92;4.63;;;;;;;;;;5135631;27;20016;-68
2021/11/07 13:52:04;;;;;;;31.67;4.03;;;;;;;;;;5135310;27;20023;-67
2021/11/07 13:54:37;;;;;;;31.42;4.63;;;;;;;;;;5116957;27;20015;-68
2021/11/07 13:57:03;;;;;;;27.02;4.28;;;;;;;;;;5135541;27;20073;-69
2021/11/07 13:59:35;;;;;;;22.13;3.75;;;;;;;;;;5135213;27;20046;-69
2021/11/07 14:02:03;;;;;;;27.88;4.07;;;;;;;;;;5135859;27;20027;-74
2021/11/07 14:04:39;;;;;;;21.63;3.20;;;;;;;;;;5135250;27;20023;-73
2021/11/07 14:07:32;;;;;;;27.15;3.92;;;;;;;;;;5135652;27;20378;-73
2021/11/07 14:10:00;;;;;;;21.02;4.20;;;;;;;;;;5113902;27;20443;-74
2021/11/07 14:12:32;;;;;;;24.73;4.35;;;;;;;;;;5116976;27;20037;-72
2021/11/07 14:15:21;;;;;;;27.27;3.80;;;;;;;;;;5137653;27;20434;-75
2021/11/07 14:17:48;;;;;;;29.92;4.20;;;;;;;;;;5135812;27;20328;-76
2021/11/07 14:20:16;;;;;;;21.73;3.97;;;;;;;;;;5139264;27;20085;-74
2021/11/07 14:23:07;;;;;;;17.63;3.30;;;;;;;;;;5116964;27;20034;-73
2021/11/07 14:25:44;;;;;;;24.05;3.97;;;;;;;;;;5136438;27;20105;-74
2021/11/07 14:28:20;;;;;;;15.05;3.22;;;;;;;;;;5117165;27;20075;-75
2021/11/07 14:30:46;;;;;;;13.75;3.42;;;;;;;;;;5137510;27;20027;-75
2021/11/07 14:33:22;;;;;;;21.20;3.72;;;;;;;;;;5116695;27;20046;-73
2021/11/07 14:35:50;;;;;;;19.50;3.30;;;;;;;;;;5117045;27;20046;-74
2021/11/07 14:38:30;;;;;;;18.30;3.47;;;;;;;;;;5135212;27;20027;-75
2021/11/07 14:41:07;;;;;;;21.38;4.00;;;;;;;;;;5135265;27;20026;-73
2021/11/07 14:44:06;;;;;;;23.48;3.65;;;;;;;;;;5135090;27;20019;-76
2021/11/07 14:46:55;;;;;;;20.40;3.53;;;;;;;;;;5116661;27;20541;-75
2021/11/07 14:49:36;;;;;;;21.17;3.40;;;;;;;;;;5135007;27;20027;-75
2021/11/07 14:54:56;;;;;;;15.23;3.05;;;;;;;;;;5134858;27;20030;-73
2021/11/07 14:57:46;;;;;;;17.60;3.35;;;;;;;;;;5116829;27;20466;-74
2021/11/07 15:00:33;;;;;;;17.60;3.28;;;;;;;;;;5134547;27;20122;-75
2021/11/07 15:03:01;;;;;;;18.98;3.42;;;;;;;;;;5133845;28;20084;-74
2021/11/07 15:05:45;;;;;;;16.42;3.47;;;;;;;;;;5136508;27;20631;-73
2021/11/07 15:08:16;;;;;;;14.68;3.22;;;;;;;;;;5116362;28;20035;-73
2021/11/07 15:10:48;;;;;;;17.17;3.65;;;;;;;;;;5134337;28;20544;-75
2021/11/07 15:13:26;;;;;;;14.32;3.17;;;;;;;;;;5135041;28;20023;-75
2021/11/07 15:23:29;;;;;;;14.45;3.08;;;;;;;;;;5135186;28;20028;-75
2021/11/07 15:25:56;;;;;;;14.40;3.60;;;;;;;;;;5135009;28;20015;-75
2021/11/07 15:28:25;;;;;;;15.18;3.42;;;;;;;;;;5129396;27;20030;-76
2021/11/07 15:30:51;;;;;;;22.17;3.33;;;;;;;;;;5139365;27;20019;-75
2021/11/07 15:33:21;;;;;;;14.65;2.78;;;;;;;;;;5145322;27;20030;-75
2021/11/07 15:35:48;;;;;;;16.58;3.08;;;;;;;;;;5123968;27;20030;-82
2021/11/07 15:38:16;;;;;;;21.08;3.50;;;;;;;;;;5142305;27;20462;-73
2021/11/07 15:40:42;;;;;;;18.45;3.65;;;;;;;;;;5121458;27;20462;-74
2021/11/07 15:43:14;;;;;;;20.63;3.88;;;;;;;;;;5153364;27;20071;-76
2021/11/07 15:46:14;;;;;;;24.70;4.07;;;;;;;;;;5158069;27;20042;-74
2021/11/07 15:48:37;;;;;;;24.33;3.83;;;;;;;;;;5144551;27;20622;-76
2021/11/07 15:53:46;;;;;;;17.77;3.55;;;;;;;;;;5148170;27;20503;-73
2021/11/07 15:56:34;;;;;;;14.25;3.00;;;;;;;;;;5146293;27;20015;-74
2021/11/07 16:07:05;;;;;;;15.32;3.20;;;;;;;;;;5149202;27;20075;-71
2021/11/07 16:09:42;;;;;;;16.38;3.38;;;;;;;;;;5149629;27;20501;-70
2021/11/07 16:12:27;;;;;;;18.83;3.22;;;;;;;;;;5141514;27;20035;-71
2021/11/07 16:17:31;;;;;;;14.40;3.33;;;;;;;;;;5143650;27;20042;-72
2021/11/07 16:19:59;;;;;;;11.93;2.75;;;;;;;;;;5140045;27;20137;-69
2021/11/07 16:22:25;;;;;;;11.95;2.80;;;;;;;;;;5144264;27;20034;-71
2021/11/07 16:24:52;;;;;;;11.60;2.25;;;;;;;;;;5142197;27;20023;-71
2021/11/07 16:27:22;;;;;;;12.90;3.22;;;;;;;;;;5141177;27;20019;-71
2021/11/07 16:29:48;;;;;;;12.20;2.53;;;;;;;;;;5138794;27;20157;-70
2021/11/07 16:32:31;;;;;;;12.75;2.65;;;;;;;;;;5124165;27;20027;-73
2021/11/07 16:35:10;;;;;;;;;;;;;;;;;;5148443;27;20019;-72
2021/11/07 16:37:51;;;;;;;16.23;2.58;;;;;;;;;;5124060;27;19907;-72
2021/11/07 16:40:30;;;;;;;12.77;2.50;;;;;;;;;;5142959;27;20023;-74
2021/11/07 16:43:01;;;;;;;12.10;2.67;;;;;;;;;;5143433;27;20018;-74
2021/11/07 16:45:27;;;;;;;14.43;2.97;;;;;;;;;;5145621;27;20015;-68
2021/11/07 16:48:00;;;;;;;13.98;3.83;;;;;;;;;;5124656;27;20031;-70
2021/11/07 16:50:32;;;;;;;;;;;;;;;;;;5142308;27;20102;-72
2021/11/07 16:53:01;;;;;;;13.40;3.90;;;;;;;;;;5130781;27;20385;-74
2021/11/07 16:55:35;;;;;;;14.85;4.13;;;;;;;;;;5141586;27;20023;-75
2021/11/07 16:58:02;;;;;;;17.13;4.15;;;;;;;;;;5145099;27;20027;-80
2021/11/07 17:00:41;;;;;;;12.05;3.78;;;;;;;;;;5129708;27;20031;-81
2021/11/07 17:03:14;;;;;;;12.68;3.85;;;;;;;;;;5147097;27;20029;-75
2021/11/07 17:05:43;;;;;;;16.10;3.95;;;;;;;;;;5141964;27;20027;-76
2021/11/07 17:08:16;;;;;;;13.32;3.78;;;;;;;;;;5141886;27;20031;-73
2021/11/07 17:10:42;;;;;;;11.15;3.35;;;;;;;;;;5145698;27;20559;-76
2021/11/07 17:13:12;;;;;;;14.20;3.90;;;;;;;;;;5137514;27;20027;-75
2021/11/07 17:15:42;;;;;;;12.20;3.63;;;;;;;;;;5144058;27;20042;-74
2021/11/07 17:25:56;;;;;;;11.30;3.72;;;;;;;;;;5135410;27;20027;-73
2021/11/07 17:28:32;;;;;;;9.95;3.05;;;;;;;;;;5142925;27;20382;-76
2021/11/07 17:36:30;;;;;;;13.33;3.93;;;;;;;;;;5152637;27;20031;-72
2021/11/07 17:50:07;;;;;;;9.15;3.13;;;;;;;;;;5144624;27;20496;-76
2021/11/07 17:55:31;;;;;;;11.45;3.60;;;;;;;;;;5143855;27;20046;-76